sensor_id;sensor_type;location;lat;lon;timestamp;P1;durP1;ratioP1;P2;durP2;ratioP2
49776;SDS011;35673;51.482;7.436;2022-09-24T00:01:58;10.88;;;5.53;;
49776;SDS011;35673;51.482;7.436;2022-09-24T00:04:24;13.27;;;5.70;;
49776;SDS011;35673;51.482;7.436;2022-09-24T00:06:51;9.63;;;5.47;;
49776;SDS011;35673;51.482;7.436;2022-09-24T00:09:18;9.88;;;5.95;;
49776;SDS011;35673;51.482;7.436;2022-09-24T00:11:46;14.15;;;5.85;;
49776;SDS011;35673;51.482;7.436;2022-09-24T00:14:13;12.98;;;5.25;;
49776;SDS011;35673;51.482;7.436;2022-09-24T00:16:40;9.00;;;6.05;;
49776;SDS011;35673;51.482;7.436;2022-09-24T00:19:08;8.13;;;4.72;;
49776;SDS011;35673;51.482;7.436;2022-09-24T00:21:35;10.15;;;5.40;;
49776;SDS011;35673;51.482;7.436;2022-09-24T00:24:06;11.60;;;6.07;;
49776;SDS011;35673;51.482;7.436;2022-09-24T00:26:33;7.72;;;5.20;;
49776;SDS011;35673;51.482;7.436;2022-09-24T00:29:16;11.60;;;6.22;;
49776;SDS011;35673;51.482;7.436;2022-09-24T00:31:44;11.82;;;5.53;;
49776;SDS011;35673;51.482;7.436;2022-09-24T00:34:10;10.23;;;5.63;;
49776;SDS011;35673;51.482;7.436;2022-09-24T00:36:35;9.05;;;5.88;;
49776;SDS011;35673;51.482;7.436;2022-09-24T00:39:01;9.30;;;6.15;;
49776;SDS011;35673;51.482;7.436;2022-09-24T00:41:28;8.60;;;5.93;;
49776;SDS011;35673;51.482;7.436;2022-09-24T00:43:56;9.70;;;5.78;;
49776;SDS011;35673;51.482;7.436;2022-09-24T00:46:24;11.35;;;5.68;;
49776;SDS011;35673;51.482;7.436;2022-09-24T00:49:18;11.50;;;5.78;;
49776;SDS011;35673;51.482;7.436;2022-09-24T00:51:44;9.07;;;5.72;;
49776;SDS011;35673;51.482;7.436;2022-09-24T00:56:42;12.68;;;6.00;;
49776;SDS011;35673;51.482;7.436;2022-09-24T00:59:10;12.68;;;5.82;;
49776;SDS011;35673;51.482;7.436;2022-09-24T01:01:41;11.27;;;5.97;;
49776;SDS011;35673;51.482;7.436;2022-09-24T01:04:08;20.73;;;6.15;;
49776;SDS011;35673;51.482;7.436;2022-09-24T01:06:34;9.70;;;6.07;;
49776;SDS011;35673;51.482;7.436;2022-09-24T01:09:00;12.35;;;5.75;;
49776;SDS011;35673;51.482;7.436;2022-09-24T01:22:02;10.10;;;5.97;;
49776;SDS011;35673;51.482;7.436;2022-09-24T01:27:19;10.63;;;6.47;;
49776;SDS011;35673;51.482;7.436;2022-09-24T01:30:27;12.23;;;5.93;;
49776;SDS011;35673;51.482;7.436;2022-09-24T01:32:47;11.93;;;6.75;;
49776;SDS011;35673;51.482;7.436;2022-09-24T01:35:19;7.25;;;5.80;;
49776;SDS011;35673;51.482;7.436;2022-09-24T01:37:50;8.15;;;5.90;;
49776;SDS011;35673;51.482;7.436;2022-09-24T01:40:20;11.02;;;7.03;;
49776;SDS011;35673;51.482;7.436;2022-09-24T01:42:49;10.43;;;6.68;;
49776;SDS011;35673;51.482;7.436;2022-09-24T01:45:16;10.38;;;6.22;;
49776;SDS011;35673;51.482;7.436;2022-09-24T01:47:42;11.55;;;6.63;;
49776;SDS011;35673;51.482;7.436;2022-09-24T01:50:10;9.98;;;6.93;;
49776;SDS011;35673;51.482;7.436;2022-09-24T01:52:41;12.35;;;7.15;;
49776;SDS011;35673;51.482;7.436;2022-09-24T01:55:32;11.85;;;7.07;;
49776;SDS011;35673;51.482;7.436;2022-09-24T01:58:04;10.13;;;6.70;;
49776;SDS011;35673;51.482;7.436;2022-09-24T02:00:35;13.35;;;7.30;;
49776;SDS011;35673;51.482;7.436;2022-09-24T02:03:06;9.30;;;6.85;;
49776;SDS011;35673;51.482;7.436;2022-09-24T02:05:41;10.18;;;8.13;;
49776;SDS011;35673;51.482;7.436;2022-09-24T02:08:21;10.68;;;7.03;;
49776;SDS011;35673;51.482;7.436;2022-09-24T02:13:39;10.18;;;7.65;;
49776;SDS011;35673;51.482;7.436;2022-09-24T02:16:13;15.23;;;7.72;;
49776;SDS011;35673;51.482;7.436;2022-09-24T02:18:45;10.55;;;7.43;;
49776;SDS011;35673;51.482;7.436;2022-09-24T02:21:15;9.45;;;7.63;;
49776;SDS011;35673;51.482;7.436;2022-09-24T02:26:49;11.55;;;7.60;;
49776;SDS011;35673;51.482;7.436;2022-09-24T02:29:15;11.35;;;7.32;;
49776;SDS011;35673;51.482;7.436;2022-09-24T02:31:44;15.55;;;8.05;;
49776;SDS011;35673;51.482;7.436;2022-09-24T02:34:17;11.13;;;7.45;;
49776;SDS011;35673;51.482;7.436;2022-09-24T02:36:51;10.27;;;7.43;;
49776;SDS011;35673;51.482;7.436;2022-09-24T02:39:23;10.63;;;8.50;;
49776;SDS011;35673;51.482;7.436;2022-09-24T02:41:48;15.15;;;8.40;;
49776;SDS011;35673;51.482;7.436;2022-09-24T02:44:15;11.73;;;7.75;;
49776;SDS011;35673;51.482;7.436;2022-09-24T02:46:42;10.02;;;7.40;;
49776;SDS011;35673;51.482;7.436;2022-09-24T02:49:08;14.90;;;8.30;;
49776;SDS011;35673;51.482;7.436;2022-09-24T02:51:35;17.33;;;7.95;;
49776;SDS011;35673;51.482;7.436;2022-09-24T02:54:01;16.02;;;8.88;;
49776;SDS011;35673;51.482;7.436;2022-09-24T02:56:27;13.73;;;8.70;;
49776;SDS011;35673;51.482;7.436;2022-09-24T02:58:53;14.27;;;9.15;;
49776;SDS011;35673;51.482;7.436;2022-09-24T03:01:19;13.90;;;8.80;;
49776;SDS011;35673;51.482;7.436;2022-09-24T03:03:46;15.45;;;8.57;;
49776;SDS011;35673;51.482;7.436;2022-09-24T03:06:12;14.07;;;7.72;;
49776;SDS011;35673;51.482;7.436;2022-09-24T03:08:38;14.80;;;8.50;;
49776;SDS011;35673;51.482;7.436;2022-09-24T03:11:06;13.18;;;8.38;;
49776;SDS011;35673;51.482;7.436;2022-09-24T03:13:33;12.50;;;8.45;;
49776;SDS011;35673;51.482;7.436;2022-09-24T03:15:58;15.90;;;9.45;;
49776;SDS011;35673;51.482;7.436;2022-09-24T03:18:24;15.48;;;9.25;;
49776;SDS011;35673;51.482;7.436;2022-09-24T03:23:47;16.42;;;8.68;;
49776;SDS011;35673;51.482;7.436;2022-09-24T03:26:13;11.18;;;8.45;;
49776;SDS011;35673;51.482;7.436;2022-09-24T03:28:39;13.43;;;9.30;;
49776;SDS011;35673;51.482;7.436;2022-09-24T03:31:05;16.80;;;8.43;;
49776;SDS011;35673;51.482;7.436;2022-09-24T03:36:12;13.20;;;8.93;;
49776;SDS011;35673;51.482;7.436;2022-09-24T03:38:44;13.10;;;8.13;;
49776;SDS011;35673;51.482;7.436;2022-09-24T03:41:12;13.50;;;8.10;;
49776;SDS011;35673;51.482;7.436;2022-09-24T03:43:39;15.82;;;9.50;;
49776;SDS011;35673;51.482;7.436;2022-09-24T03:46:05;13.30;;;9.85;;
49776;SDS011;35673;51.482;7.436;2022-09-24T03:48:36;16.58;;;10.95;;
49776;SDS011;35673;51.482;7.436;2022-09-24T03:51:04;15.73;;;11.32;;
49776;SDS011;35673;51.482;7.436;2022-09-24T03:53:31;16.95;;;11.07;;
49776;SDS011;35673;51.482;7.436;2022-09-24T03:55:57;18.90;;;13.32;;
49776;SDS011;35673;51.482;7.436;2022-09-24T03:58:24;16.17;;;13.00;;
49776;SDS011;35673;51.482;7.436;2022-09-24T04:00:50;18.10;;;13.30;;
49776;SDS011;35673;51.482;7.436;2022-09-24T04:03:17;22.30;;;14.82;;
49776;SDS011;35673;51.482;7.436;2022-09-24T04:05:43;21.70;;;14.88;;
49776;SDS011;35673;51.482;7.436;2022-09-24T04:08:09;19.02;;;14.30;;
49776;SDS011;35673;51.482;7.436;2022-09-24T04:10:34;22.10;;;14.90;;
49776;SDS011;35673;51.482;7.436;2022-09-24T04:13:00;21.73;;;13.63;;
49776;SDS011;35673;51.482;7.436;2022-09-24T04:15:26;18.23;;;13.20;;
49776;SDS011;35673;51.482;7.436;2022-09-24T04:17:53;18.90;;;12.82;;
49776;SDS011;35673;51.482;7.436;2022-09-24T04:20:20;21.50;;;14.02;;
49776;SDS011;35673;51.482;7.436;2022-09-24T04:22:51;17.75;;;12.68;;
49776;SDS011;35673;51.482;7.436;2022-09-24T04:25:19;20.05;;;13.40;;
49776;SDS011;35673;51.482;7.436;2022-09-24T04:27:45;17.52;;;13.52;;
49776;SDS011;35673;51.482;7.436;2022-09-24T04:30:11;21.10;;;13.38;;
49776;SDS011;35673;51.482;7.436;2022-09-24T04:32:39;19.92;;;13.68;;
49776;SDS011;35673;51.482;7.436;2022-09-24T04:35:05;18.77;;;13.27;;
49776;SDS011;35673;51.482;7.436;2022-09-24T04:37:31;22.60;;;14.85;;
49776;SDS011;35673;51.482;7.436;2022-09-24T04:39:57;18.80;;;13.13;;
49776;SDS011;35673;51.482;7.436;2022-09-24T04:42:23;19.35;;;13.45;;
49776;SDS011;35673;51.482;7.436;2022-09-24T04:44:48;19.75;;;14.05;;
49776;SDS011;35673;51.482;7.436;2022-09-24T04:47:14;23.10;;;13.90;;
49776;SDS011;35673;51.482;7.436;2022-09-24T04:49:42;23.48;;;14.23;;
49776;SDS011;35673;51.482;7.436;2022-09-24T04:52:09;19.50;;;14.25;;
49776;SDS011;35673;51.482;7.436;2022-09-24T04:54:39;19.70;;;13.95;;
49776;SDS011;35673;51.482;7.436;2022-09-24T04:57:06;20.55;;;13.40;;
49776;SDS011;35673;51.482;7.436;2022-09-24T04:59:32;19.63;;;12.95;;
49776;SDS011;35673;51.482;7.436;2022-09-24T05:01:57;21.75;;;13.82;;
49776;SDS011;35673;51.482;7.436;2022-09-24T05:04:23;16.83;;;12.55;;
49776;SDS011;35673;51.482;7.436;2022-09-24T05:06:49;20.30;;;11.98;;
49776;SDS011;35673;51.482;7.436;2022-09-24T05:09:15;23.20;;;14.13;;
49776;SDS011;35673;51.482;7.436;2022-09-24T05:11:40;17.50;;;11.73;;
49776;SDS011;35673;51.482;7.436;2022-09-24T05:14:06;15.88;;;12.30;;
49776;SDS011;35673;51.482;7.436;2022-09-24T05:16:32;17.40;;;13.35;;
49776;SDS011;35673;51.482;7.436;2022-09-24T05:18:58;18.70;;;11.63;;
49776;SDS011;35673;51.482;7.436;2022-09-24T05:21:23;18.27;;;11.95;;
49776;SDS011;35673;51.482;7.436;2022-09-24T05:23:49;16.73;;;11.90;;
49776;SDS011;35673;51.482;7.436;2022-09-24T05:26:14;20.88;;;12.40;;
49776;SDS011;35673;51.482;7.436;2022-09-24T05:28:59;15.48;;;12.48;;
49776;SDS011;35673;51.482;7.436;2022-09-24T05:31:24;16.25;;;11.10;;
49776;SDS011;35673;51.482;7.436;2022-09-24T05:33:50;17.10;;;11.13;;
49776;SDS011;35673;51.482;7.436;2022-09-24T05:36:15;16.85;;;12.20;;
49776;SDS011;35673;51.482;7.436;2022-09-24T05:38:43;16.73;;;11.02;;
49776;SDS011;35673;51.482;7.436;2022-09-24T05:41:08;15.48;;;11.20;;
49776;SDS011;35673;51.482;7.436;2022-09-24T05:43:34;19.80;;;12.25;;
49776;SDS011;35673;51.482;7.436;2022-09-24T05:46:00;17.80;;;12.60;;
49776;SDS011;35673;51.482;7.436;2022-09-24T05:48:26;18.13;;;11.40;;
49776;SDS011;35673;51.482;7.436;2022-09-24T05:50:51;16.55;;;12.02;;
49776;SDS011;35673;51.482;7.436;2022-09-24T05:53:19;15.90;;;11.98;;
49776;SDS011;35673;51.482;7.436;2022-09-24T05:55:45;21.73;;;10.93;;
49776;SDS011;35673;51.482;7.436;2022-09-24T05:58:10;14.50;;;11.07;;
49776;SDS011;35673;51.482;7.436;2022-09-24T06:00:37;19.45;;;11.30;;
49776;SDS011;35673;51.482;7.436;2022-09-24T06:03:13;15.95;;;11.75;;
49776;SDS011;35673;51.482;7.436;2022-09-24T06:05:44;18.67;;;11.68;;
49776;SDS011;35673;51.482;7.436;2022-09-24T06:08:12;19.52;;;12.10;;
49776;SDS011;35673;51.482;7.436;2022-09-24T06:10:40;14.75;;;10.63;;
49776;SDS011;35673;51.482;7.436;2022-09-24T06:13:13;15.95;;;11.27;;
49776;SDS011;35673;51.482;7.436;2022-09-24T06:15:41;18.70;;;10.60;;
49776;SDS011;35673;51.482;7.436;2022-09-24T06:18:08;16.95;;;10.68;;
49776;SDS011;35673;51.482;7.436;2022-09-24T06:20:35;15.90;;;10.18;;
49776;SDS011;35673;51.482;7.436;2022-09-24T06:23:01;19.35;;;12.55;;
49776;SDS011;35673;51.482;7.436;2022-09-24T06:25:27;16.75;;;11.20;;
49776;SDS011;35673;51.482;7.436;2022-09-24T06:27:56;16.25;;;10.65;;
49776;SDS011;35673;51.482;7.436;2022-09-24T06:30:25;17.13;;;10.85;;
49776;SDS011;35673;51.482;7.436;2022-09-24T06:32:54;15.05;;;11.40;;
49776;SDS011;35673;51.482;7.436;2022-09-24T06:35:25;17.77;;;12.27;;
49776;SDS011;35673;51.482;7.436;2022-09-24T06:37:51;18.17;;;11.80;;
49776;SDS011;35673;51.482;7.436;2022-09-24T06:40:17;15.68;;;11.25;;
49776;SDS011;35673;51.482;7.436;2022-09-24T06:42:42;25.00;;;10.95;;
49776;SDS011;35673;51.482;7.436;2022-09-24T06:45:08;16.58;;;11.00;;
49776;SDS011;35673;51.482;7.436;2022-09-24T06:47:34;17.73;;;11.38;;
49776;SDS011;35673;51.482;7.436;2022-09-24T06:50:00;19.83;;;11.30;;
49776;SDS011;35673;51.482;7.436;2022-09-24T06:52:28;18.48;;;10.38;;
49776;SDS011;35673;51.482;7.436;2022-09-24T06:54:54;15.98;;;11.00;;
49776;SDS011;35673;51.482;7.436;2022-09-24T06:57:20;18.55;;;11.55;;
49776;SDS011;35673;51.482;7.436;2022-09-24T06:59:46;16.17;;;10.32;;
49776;SDS011;35673;51.482;7.436;2022-09-24T07:02:11;17.08;;;10.77;;
49776;SDS011;35673;51.482;7.436;2022-09-24T07:04:37;17.75;;;10.93;;
49776;SDS011;35673;51.482;7.436;2022-09-24T07:07:03;15.93;;;9.43;;
49776;SDS011;35673;51.482;7.436;2022-09-24T07:09:48;14.25;;;10.60;;
49776;SDS011;35673;51.482;7.436;2022-09-24T07:12:14;14.02;;;10.35;;
49776;SDS011;35673;51.482;7.436;2022-09-24T07:14:39;17.23;;;10.38;;
49776;SDS011;35673;51.482;7.436;2022-09-24T07:17:05;17.75;;;10.85;;
49776;SDS011;35673;51.482;7.436;2022-09-24T07:19:30;13.20;;;10.52;;
49776;SDS011;35673;51.482;7.436;2022-09-24T07:21:56;13.60;;;10.32;;
49776;SDS011;35673;51.482;7.436;2022-09-24T07:24:22;16.75;;;11.77;;
49776;SDS011;35673;51.482;7.436;2022-09-24T07:26:47;22.25;;;11.80;;
49776;SDS011;35673;51.482;7.436;2022-09-24T07:29:13;15.15;;;10.93;;
49776;SDS011;35673;51.482;7.436;2022-09-24T07:31:39;14.80;;;10.38;;
49776;SDS011;35673;51.482;7.436;2022-09-24T07:34:05;15.13;;;11.30;;
49776;SDS011;35673;51.482;7.436;2022-09-24T07:36:32;15.13;;;11.40;;
49776;SDS011;35673;51.482;7.436;2022-09-24T07:38:58;18.08;;;11.25;;
49776;SDS011;35673;51.482;7.436;2022-09-24T07:41:25;18.10;;;10.93;;
49776;SDS011;35673;51.482;7.436;2022-09-24T07:43:51;17.15;;;12.02;;
49776;SDS011;35673;51.482;7.436;2022-09-24T07:46:19;15.50;;;12.07;;
49776;SDS011;35673;51.482;7.436;2022-09-24T07:48:45;17.50;;;11.38;;
49776;SDS011;35673;51.482;7.436;2022-09-24T07:51:12;16.10;;;10.88;;
49776;SDS011;35673;51.482;7.436;2022-09-24T07:53:38;17.40;;;10.88;;
49776;SDS011;35673;51.482;7.436;2022-09-24T07:56:03;15.93;;;11.43;;
49776;SDS011;35673;51.482;7.436;2022-09-24T07:58:29;16.58;;;11.65;;
49776;SDS011;35673;51.482;7.436;2022-09-24T08:00:58;16.75;;;11.88;;
49776;SDS011;35673;51.482;7.436;2022-09-24T08:03:24;15.07;;;10.75;;
49776;SDS011;35673;51.482;7.436;2022-09-24T08:05:50;17.92;;;10.30;;
49776;SDS011;35673;51.482;7.436;2022-09-24T08:08:20;16.05;;;10.43;;
49776;SDS011;35673;51.482;7.436;2022-09-24T08:10:46;14.30;;;10.77;;
49776;SDS011;35673;51.482;7.436;2022-09-24T08:13:11;16.27;;;12.23;;
49776;SDS011;35673;51.482;7.436;2022-09-24T08:15:37;14.57;;;11.02;;
49776;SDS011;35673;51.482;7.436;2022-09-24T08:18:03;14.10;;;9.82;;
49776;SDS011;35673;51.482;7.436;2022-09-24T08:20:30;18.08;;;11.32;;
49776;SDS011;35673;51.482;7.436;2022-09-24T08:23:01;15.63;;;10.85;;
49776;SDS011;35673;51.482;7.436;2022-09-24T08:25:36;14.50;;;9.77;;
49776;SDS011;35673;51.482;7.436;2022-09-24T08:28:05;15.65;;;10.10;;
49776;SDS011;35673;51.482;7.436;2022-09-24T08:30:32;14.48;;;9.75;;
49776;SDS011;35673;51.482;7.436;2022-09-24T08:32:59;14.35;;;9.77;;
49776;SDS011;35673;51.482;7.436;2022-09-24T08:35:25;13.65;;;10.00;;
49776;SDS011;35673;51.482;7.436;2022-09-24T08:37:54;11.57;;;7.70;;
49776;SDS011;35673;51.482;7.436;2022-09-24T08:40:21;12.73;;;8.15;;
49776;SDS011;35673;51.482;7.436;2022-09-24T08:45:39;9.75;;;6.80;;
49776;SDS011;35673;51.482;7.436;2022-09-24T08:48:29;11.77;;;8.13;;
49776;SDS011;35673;51.482;7.436;2022-09-24T08:51:02;11.38;;;8.85;;
49776;SDS011;35673;51.482;7.436;2022-09-24T08:53:36;10.02;;;7.32;;
49776;SDS011;35673;51.482;7.436;2022-09-24T08:56:25;12.63;;;8.18;;
49776;SDS011;35673;51.482;7.436;2022-09-24T08:58:57;11.43;;;8.10;;
49776;SDS011;35673;51.482;7.436;2022-09-24T09:04:17;14.32;;;8.13;;
49776;SDS011;35673;51.482;7.436;2022-09-24T09:06:54;11.00;;;7.75;;
49776;SDS011;35673;51.482;7.436;2022-09-24T09:09:58;11.23;;;7.70;;
49776;SDS011;35673;51.482;7.436;2022-09-24T09:12:27;10.38;;;7.57;;
49776;SDS011;35673;51.482;7.436;2022-09-24T09:17:36;11.68;;;7.38;;
49776;SDS011;35673;51.482;7.436;2022-09-24T09:20:17;9.13;;;6.70;;
49776;SDS011;35673;51.482;7.436;2022-09-24T09:22:47;9.52;;;7.63;;
49776;SDS011;35673;51.482;7.436;2022-09-24T09:27:48;9.82;;;7.10;;
49776;SDS011;35673;51.482;7.436;2022-09-24T09:30:24;11.25;;;7.53;;
49776;SDS011;35673;51.482;7.436;2022-09-24T09:33:27;11.48;;;7.85;;
49776;SDS011;35673;51.482;7.436;2022-09-24T09:36:01;11.93;;;7.38;;
49776;SDS011;35673;51.482;7.436;2022-09-24T09:39:23;11.73;;;8.02;;
49776;SDS011;35673;51.482;7.436;2022-09-24T09:42:03;15.60;;;8.18;;
49776;SDS011;35673;51.482;7.436;2022-09-24T09:44:42;11.10;;;6.97;;
49776;SDS011;35673;51.482;7.436;2022-09-24T09:49:41;11.27;;;7.57;;
49776;SDS011;35673;51.482;7.436;2022-09-24T09:52:18;13.43;;;8.77;;
49776;SDS011;35673;51.482;7.436;2022-09-24T09:54:45;12.27;;;8.40;;
49776;SDS011;35673;51.482;7.436;2022-09-24T09:57:15;13.70;;;9.20;;
49776;SDS011;35673;51.482;7.436;2022-09-24T09:59:47;11.05;;;8.63;;
49776;SDS011;35673;51.482;7.436;2022-09-24T10:02:22;12.00;;;8.25;;
49776;SDS011;35673;51.482;7.436;2022-09-24T10:04:51;15.65;;;8.75;;
49776;SDS011;35673;51.482;7.436;2022-09-24T10:07:22;13.55;;;9.98;;
49776;SDS011;35673;51.482;7.436;2022-09-24T10:09:57;14.93;;;9.98;;
49776;SDS011;35673;51.482;7.436;2022-09-24T10:12:25;16.15;;;10.50;;
49776;SDS011;35673;51.482;7.436;2022-09-24T10:15:01;10.70;;;8.07;;
49776;SDS011;35673;51.482;7.436;2022-09-24T10:17:38;13.70;;;9.18;;
49776;SDS011;35673;51.482;7.436;2022-09-24T10:20:16;10.45;;;7.88;;
49776;SDS011;35673;51.482;7.436;2022-09-24T10:22:48;15.20;;;8.95;;
49776;SDS011;35673;51.482;7.436;2022-09-24T10:25:26;10.68;;;7.78;;
49776;SDS011;35673;51.482;7.436;2022-09-24T10:27:58;13.95;;;9.05;;
49776;SDS011;35673;51.482;7.436;2022-09-24T10:30:58;12.40;;;8.32;;
49776;SDS011;35673;51.482;7.436;2022-09-24T10:36:01;11.02;;;7.78;;
49776;SDS011;35673;51.482;7.436;2022-09-24T10:38:29;11.45;;;7.22;;
49776;SDS011;35673;51.482;7.436;2022-09-24T10:40:55;12.30;;;9.23;;
49776;SDS011;35673;51.482;7.436;2022-09-24T10:43:21;12.15;;;7.53;;
49776;SDS011;35673;51.482;7.436;2022-09-24T10:48:26;11.75;;;7.05;;
49776;SDS011;35673;51.482;7.436;2022-09-24T10:51:22;9.68;;;7.78;;
49776;SDS011;35673;51.482;7.436;2022-09-24T10:56:48;14.00;;;8.07;;
49776;SDS011;35673;51.482;7.436;2022-09-24T11:04:54;10.65;;;7.68;;
49776;SDS011;35673;51.482;7.436;2022-09-24T11:15:25;10.38;;;6.28;;
49776;SDS011;35673;51.482;7.436;2022-09-24T11:29:47;8.40;;;5.53;;
49776;SDS011;35673;51.482;7.436;2022-09-24T11:37:32;8.07;;;5.97;;
49776;SDS011;35673;51.482;7.436;2022-09-24T11:40:35;8.35;;;5.72;;
49776;SDS011;35673;51.482;7.436;2022-09-24T11:43:34;8.02;;;6.22;;
49776;SDS011;35673;51.482;7.436;2022-09-24T11:52:13;11.13;;;6.68;;
49776;SDS011;35673;51.482;7.436;2022-09-24T11:57:43;9.98;;;6.32;;
49776;SDS011;35673;51.482;7.436;2022-09-24T12:00:17;10.32;;;5.78;;
49776;SDS011;35673;51.482;7.436;2022-09-24T12:02:56;7.90;;;6.40;;
49776;SDS011;35673;51.482;7.436;2022-09-24T12:05:38;11.68;;;7.72;;
49776;SDS011;35673;51.482;7.436;2022-09-24T12:08:12;10.25;;;7.82;;
49776;SDS011;35673;51.482;7.436;2022-09-24T12:10:51;14.75;;;8.93;;
49776;SDS011;35673;51.482;7.436;2022-09-24T12:15:59;10.82;;;8.23;;
49776;SDS011;35673;51.482;7.436;2022-09-24T12:18:30;11.38;;;8.13;;
49776;SDS011;35673;51.482;7.436;2022-09-24T12:21:06;10.48;;;7.95;;
49776;SDS011;35673;51.482;7.436;2022-09-24T12:23:36;10.88;;;8.00;;
49776;SDS011;35673;51.482;7.436;2022-09-24T12:26:08;12.32;;;8.82;;
49776;SDS011;35673;51.482;7.436;2022-09-24T12:37:53;14.80;;;8.25;;
49776;SDS011;35673;51.482;7.436;2022-09-24T12:40:59;12.88;;;8.45;;
49776;SDS011;35673;51.482;7.436;2022-09-24T12:43:43;11.85;;;8.45;;
49776;SDS011;35673;51.482;7.436;2022-09-24T12:46:33;11.00;;;8.63;;
49776;SDS011;35673;51.482;7.436;2022-09-24T12:49:15;11.10;;;7.85;;
49776;SDS011;35673;51.482;7.436;2022-09-24T12:51:48;12.98;;;8.98;;
49776;SDS011;35673;51.482;7.436;2022-09-24T12:54:52;12.90;;;8.95;;
49776;SDS011;35673;51.482;7.436;2022-09-24T12:57:15;12.55;;;8.43;;
49776;SDS011;35673;51.482;7.436;2022-09-24T12:59:56;12.18;;;8.55;;
49776;SDS011;35673;51.482;7.436;2022-09-24T13:02:48;13.40;;;9.20;;
49776;SDS011;35673;51.482;7.436;2022-09-24T13:07:58;18.65;;;13.70;;
49776;SDS011;35673;51.482;7.436;2022-09-24T13:10:27;15.10;;;12.50;;
49776;SDS011;35673;51.482;7.436;2022-09-24T13:12:57;13.02;;;10.55;;
49776;SDS011;35673;51.482;7.436;2022-09-24T13:15:39;15.43;;;9.55;;
49776;SDS011;35673;51.482;7.436;2022-09-24T13:20:38;14.65;;;9.82;;
49776;SDS011;35673;51.482;7.436;2022-09-24T13:25:38;13.90;;;10.02;;
49776;SDS011;35673;51.482;7.436;2022-09-24T13:28:18;12.98;;;9.73;;
49776;SDS011;35673;51.482;7.436;2022-09-24T13:31:15;14.23;;;10.02;;
49776;SDS011;35673;51.482;7.436;2022-09-24T13:33:52;13.32;;;10.10;;
49776;SDS011;35673;51.482;7.436;2022-09-24T13:36:54;13.90;;;8.93;;
49776;SDS011;35673;51.482;7.436;2022-09-24T13:39:44;13.52;;;10.57;;
49776;SDS011;35673;51.482;7.436;2022-09-24T13:42:32;14.90;;;11.35;;
49776;SDS011;35673;51.482;7.436;2022-09-24T13:45:10;13.18;;;11.07;;
49776;SDS011;35673;51.482;7.436;2022-09-24T13:47:43;14.20;;;10.60;;
49776;SDS011;35673;51.482;7.436;2022-09-24T13:50:36;14.80;;;10.23;;
49776;SDS011;35673;51.482;7.436;2022-09-24T13:55:48;15.23;;;10.07;;
49776;SDS011;35673;51.482;7.436;2022-09-24T13:58:34;15.45;;;10.70;;
49776;SDS011;35673;51.482;7.436;2022-09-24T14:01:13;14.02;;;9.93;;
49776;SDS011;35673;51.482;7.436;2022-09-24T14:03:54;13.35;;;10.20;;
49776;SDS011;35673;51.482;7.436;2022-09-24T14:06:31;14.00;;;10.63;;
49776;SDS011;35673;51.482;7.436;2022-09-24T14:09:02;12.13;;;10.35;;
49776;SDS011;35673;51.482;7.436;2022-09-24T14:11:48;15.18;;;11.10;;
49776;SDS011;35673;51.482;7.436;2022-09-24T14:14:15;14.23;;;11.68;;
49776;SDS011;35673;51.482;7.436;2022-09-24T14:16:43;13.48;;;10.98;;
49776;SDS011;35673;51.482;7.436;2022-09-24T14:19:12;13.98;;;10.77;;
49776;SDS011;35673;51.482;7.436;2022-09-24T14:21:44;13.43;;;10.65;;
49776;SDS011;35673;51.482;7.436;2022-09-24T14:24:24;15.02;;;10.43;;
49776;SDS011;35673;51.482;7.436;2022-09-24T14:27:05;14.00;;;10.20;;
49776;SDS011;35673;51.482;7.436;2022-09-24T14:29:37;15.77;;;11.18;;
49776;SDS011;35673;51.482;7.436;2022-09-24T14:32:19;12.48;;;10.93;;
49776;SDS011;35673;51.482;7.436;2022-09-24T14:34:50;14.30;;;11.00;;
49776;SDS011;35673;51.482;7.436;2022-09-24T14:37:20;15.20;;;11.57;;
49776;SDS011;35673;51.482;7.436;2022-09-24T14:39:49;16.80;;;11.90;;
49776;SDS011;35673;51.482;7.436;2022-09-24T14:42:29;15.40;;;11.80;;
49776;SDS011;35673;51.482;7.436;2022-09-24T14:45:00;16.58;;;11.82;;
49776;SDS011;35673;51.482;7.436;2022-09-24T14:47:29;18.23;;;12.27;;
49776;SDS011;35673;51.482;7.436;2022-09-24T14:49:57;16.92;;;14.18;;
49776;SDS011;35673;51.482;7.436;2022-09-24T14:52:30;19.88;;;12.95;;
49776;SDS011;35673;51.482;7.436;2022-09-24T14:55:20;22.90;;;15.98;;
49776;SDS011;35673;51.482;7.436;2022-09-24T14:57:49;26.25;;;18.25;;
49776;SDS011;35673;51.482;7.436;2022-09-24T15:02:57;24.73;;;19.40;;
49776;SDS011;35673;51.482;7.436;2022-09-24T15:05:28;18.58;;;14.27;;
49776;SDS011;35673;51.482;7.436;2022-09-24T15:08:08;17.48;;;12.48;;
49776;SDS011;35673;51.482;7.436;2022-09-24T15:11:01;23.58;;;19.00;;
49776;SDS011;35673;51.482;7.436;2022-09-24T15:13:32;19.92;;;16.02;;
49776;SDS011;35673;51.482;7.436;2022-09-24T15:16:16;20.35;;;14.95;;
49776;SDS011;35673;51.482;7.436;2022-09-24T15:19:24;18.42;;;14.90;;
49776;SDS011;35673;51.482;7.436;2022-09-24T15:21:48;15.80;;;13.98;;
49776;SDS011;35673;51.482;7.436;2022-09-24T15:24:15;20.30;;;15.90;;
49776;SDS011;35673;51.482;7.436;2022-09-24T15:26:44;24.42;;;20.30;;
49776;SDS011;35673;51.482;7.436;2022-09-24T15:29:19;21.20;;;17.38;;
49776;SDS011;35673;51.482;7.436;2022-09-24T15:31:49;20.42;;;17.45;;
49776;SDS011;35673;51.482;7.436;2022-09-24T15:34:15;19.08;;;15.55;;
49776;SDS011;35673;51.482;7.436;2022-09-24T15:36:41;16.00;;;14.38;;
49776;SDS011;35673;51.482;7.436;2022-09-24T15:39:08;19.58;;;14.68;;
49776;SDS011;35673;51.482;7.436;2022-09-24T15:41:34;17.98;;;15.00;;
49776;SDS011;35673;51.482;7.436;2022-09-24T15:44:00;17.50;;;14.63;;
49776;SDS011;35673;51.482;7.436;2022-09-24T15:46:25;18.55;;;14.90;;
49776;SDS011;35673;51.482;7.436;2022-09-24T15:48:51;19.20;;;15.10;;
49776;SDS011;35673;51.482;7.436;2022-09-24T15:51:18;19.08;;;15.20;;
49776;SDS011;35673;51.482;7.436;2022-09-24T15:53:45;17.52;;;15.38;;
49776;SDS011;35673;51.482;7.436;2022-09-24T15:56:11;22.02;;;16.70;;
49776;SDS011;35673;51.482;7.436;2022-09-24T15:58:37;19.55;;;14.77;;
49776;SDS011;35673;51.482;7.436;2022-09-24T16:01:03;20.13;;;15.88;;
49776;SDS011;35673;51.482;7.436;2022-09-24T16:03:30;21.23;;;14.98;;
49776;SDS011;35673;51.482;7.436;2022-09-24T16:05:57;22.45;;;16.33;;
49776;SDS011;35673;51.482;7.436;2022-09-24T16:08:23;21.00;;;15.18;;
49776;SDS011;35673;51.482;7.436;2022-09-24T16:10:50;22.55;;;16.27;;
49776;SDS011;35673;51.482;7.436;2022-09-24T16:13:17;22.60;;;16.58;;
49776;SDS011;35673;51.482;7.436;2022-09-24T16:15:43;22.65;;;16.88;;
49776;SDS011;35673;51.482;7.436;2022-09-24T16:18:10;20.40;;;15.27;;
49776;SDS011;35673;51.482;7.436;2022-09-24T16:20:38;20.73;;;15.98;;
49776;SDS011;35673;51.482;7.436;2022-09-24T16:23:05;20.35;;;16.48;;
49776;SDS011;35673;51.482;7.436;2022-09-24T16:25:33;22.25;;;18.08;;
49776;SDS011;35673;51.482;7.436;2022-09-24T16:27:58;19.90;;;15.88;;
49776;SDS011;35673;51.482;7.436;2022-09-24T16:30:24;22.00;;;17.15;;
49776;SDS011;35673;51.482;7.436;2022-09-24T16:32:50;25.23;;;18.58;;
49776;SDS011;35673;51.482;7.436;2022-09-24T16:35:16;24.77;;;19.02;;
49776;SDS011;35673;51.482;7.436;2022-09-24T16:37:42;22.42;;;17.05;;
49776;SDS011;35673;51.482;7.436;2022-09-24T16:40:07;24.25;;;17.42;;
49776;SDS011;35673;51.482;7.436;2022-09-24T16:42:33;22.08;;;17.45;;
49776;SDS011;35673;51.482;7.436;2022-09-24T16:44:59;25.27;;;17.67;;